sensor_id;sensor_type;location;lat;lon;timestamp;pressure;altitude;pressure_sealevel;temperature;humidity
78843;BME280;70542;53.774;-0.352;2024-02-23T00:05:24;98120;;;5.596;48
78843;BME280;70542;53.774;-0.352;2024-02-23T00:11:27;98120;;;5.019;50
78843;BME280;70542;53.774;-0.352;2024-02-23T00:17:28;98120;;;5.954;47
78843;BME280;70542;53.774;-0.352;2024-02-23T00:23:36;98120;;;6.431;46
78843;BME280;70542;53.774;-0.352;2024-02-23T00:29:54;98120;;;6.639;45
78843;BME280;70542;53.774;-0.352;2024-02-23T00:36:03;98120;;;7.752;43
78843;BME280;70542;53.774;-0.352;2024-02-23T00:41:59;98120;;;7.014;43
78843;BME280;70542;53.774;-0.352;2024-02-23T00:48:07;98120;;;7.147;44
78843;BME280;70542;53.774;-0.352;2024-02-23T00:54:15;98110;;;7.531;44
78843;BME280;70542;53.774;-0.352;2024-02-23T01:00:22;98110;;;7.495;43
78843;BME280;70542;53.774;-0.352;2024-02-23T01:06:31;98110;;;7.432;44
78843;BME280;70542;53.774;-0.352;2024-02-23T01:12:39;98100;;;7.798;43
78843;BME280;70542;53.774;-0.352;2024-02-23T01:18:35;98090;;;6.803;45
78843;BME280;70542;53.774;-0.352;2024-02-23T01:24:43;98090;;;6.439;48
78843;BME280;70542;53.774;-0.352;2024-02-23T01:30:51;98080;;;6.038;46
78843;BME280;70542;53.774;-0.352;2024-02-23T01:36:47;98080;;;5.667;46
78843;BME280;70542;53.774;-0.352;2024-02-23T01:43:02;98090;;;5.13;49
78843;BME280;70542;53.774;-0.352;2024-02-23T01:48:58;98080;;;5.283;48
78843;BME280;70542;53.774;-0.352;2024-02-23T01:55:02;98080;;;4.921;49
78843;BME280;70542;53.774;-0.352;2024-02-23T02:01:22;98080;;;4.191;51
78843;BME280;70542;53.774;-0.352;2024-02-23T02:07:18;98090;;;4.869;49
78843;BME280;70542;53.774;-0.352;2024-02-23T02:13:20;98080;;;5.087;50
78843;BME280;70542;53.774;-0.352;2024-02-23T02:19:21;98080;;;4.518;51
78843;BME280;70542;53.774;-0.352;2024-02-23T02:25:33;98090;;;3.712;52
78843;BME280;70542;53.774;-0.352;2024-02-23T02:31:41;98090;;;5.599;49
78843;BME280;70542;53.774;-0.352;2024-02-23T02:37:37;98090;;;5.153;49
78843;BME280;70542;53.774;-0.352;2024-02-23T02:43:39;98080;;;5.065;50
78843;BME280;70542;53.774;-0.352;2024-02-23T02:49:35;98080;;;4.728;50
78843;BME280;70542;53.774;-0.352;2024-02-23T02:55:32;98090;;;3.254;53
78843;BME280;70542;53.774;-0.352;2024-02-23T03:01:35;98090;;;5.173;51
78843;BME280;70542;53.774;-0.352;2024-02-23T03:07:31;98080;;;4.769;51
78843;BME280;70542;53.774;-0.352;2024-02-23T03:13:43;98090;;;4.706;51
78843;BME280;70542;53.774;-0.352;2024-02-23T03:19:56;98090;;;4.953;50
78843;BME280;70542;53.774;-0.352;2024-02-23T03:25:52;98080;;;5.285;49
78843;BME280;70542;53.774;-0.352;2024-02-23T03:31:55;98080;;;5.826;48
78843;BME280;70542;53.774;-0.352;2024-02-23T03:38:04;98080;;;5.262;49
78843;BME280;70542;53.774;-0.352;2024-02-23T03:44:00;98080;;;6.158;47
78843;BME280;70542;53.774;-0.352;2024-02-23T03:50:09;98070;;;5.738;48
78843;BME280;70542;53.774;-0.352;2024-02-23T03:56:13;98070;;;5.266;49
78843;BME280;70542;53.774;-0.352;2024-02-23T04:02:20;98080;;;4.261;51
78843;BME280;70542;53.774;-0.352;2024-02-23T04:08:28;98060;;;5.334;49
78843;BME280;70542;53.774;-0.352;2024-02-23T04:14:36;98070;;;5.737;48
78843;BME280;70542;53.774;-0.352;2024-02-23T04:20:32;98080;;;5.364;49
78843;BME280;70542;53.774;-0.352;2024-02-23T04:26:39;98070;;;4.891;51
78843;BME280;70542;53.774;-0.352;2024-02-23T04:32:47;98070;;;5.331;50
78843;BME280;70542;53.774;-0.352;2024-02-23T04:38:26;98060;;;5.199;50
78843;BME280;70542;53.774;-0.352;2024-02-23T04:44:23;98070;;;4.128;53
78843;BME280;70542;53.774;-0.352;2024-02-23T04:50:31;98080;;;3.402;54
78843;BME280;70542;53.774;-0.352;2024-02-23T04:56:27;98080;;;4.281;52
78843;BME280;70542;53.774;-0.352;2024-02-23T05:02:24;98090;;;3.98;53
78843;BME280;70542;53.774;-0.352;2024-02-23T05:08:08;98090;;;4.675;51
78843;BME280;70542;53.774;-0.352;2024-02-23T05:14:17;98090;;;4.072;54
78843;BME280;70542;53.774;-0.352;2024-02-23T05:20:18;98090;;;4.437;52
78843;BME280;70542;53.774;-0.352;2024-02-23T05:26:25;98080;;;4.961;51
78843;BME280;70542;53.774;-0.352;2024-02-23T05:32:21;98080;;;4.272;53
78843;BME280;70542;53.774;-0.352;2024-02-23T05:38:35;98080;;;5.522;49
78843;BME280;70542;53.774;-0.352;2024-02-23T05:44:31;98090;;;5.789;49
78843;BME280;70542;53.774;-0.352;2024-02-23T05:50:41;98090;;;5.964;49
78843;BME280;70542;53.774;-0.352;2024-02-23T05:56:47;98100;;;5.793;48
78843;BME280;70542;53.774;-0.352;2024-02-23T06:02:43;98100;;;6.606;47
78843;BME280;70542;53.774;-0.352;2024-02-23T06:08:52;98100;;;6.849;46
78843;BME280;70542;53.774;-0.352;2024-02-23T06:15:00;98090;;;6.463;46
78843;BME280;70542;53.774;-0.352;2024-02-23T06:21:13;98090;;;6.323;46
78843;BME280;70542;53.774;-0.352;2024-02-23T06:27:22;98090;;;5.358;49
78843;BME280;70542;53.774;-0.352;2024-02-23T06:33:30;98090;;;5.162;49
78843;BME280;70542;53.774;-0.352;2024-02-23T06:39:39;98100;;;5.242;50
78843;BME280;70542;53.774;-0.352;2024-02-23T06:45:46;98110;;;5.313;50
78843;BME280;70542;53.774;-0.352;2024-02-23T06:51:42;98120;;;3.506;53
78843;BME280;70542;53.774;-0.352;2024-02-23T06:57:38;98130;;;4.12;53
78843;BME280;70542;53.774;-0.352;2024-02-23T07:03:34;98140;;;4.857;52
78843;BME280;70542;53.774;-0.352;2024-02-23T07:09:44;98140;;;4.916;50
78843;BME280;70542;53.774;-0.352;2024-02-23T07:15:45;98140;;;6.006;48
78843;BME280;70542;53.774;-0.352;2024-02-23T07:21:52;98130;;;6.166;48
78843;BME280;70542;53.774;-0.352;2024-02-23T07:27:49;98130;;;6.604;47
78843;BME280;70542;53.774;-0.352;2024-02-23T07:33:45;98150;;;6.41;48
78843;BME280;70542;53.774;-0.352;2024-02-23T07:39:46;98160;;;6.161;48
78843;BME280;70542;53.774;-0.352;2024-02-23T07:45:55;98160;;;6.314;48
78843;BME280;70542;53.774;-0.352;2024-02-23T07:51:51;98170;;;5.768;50
78843;BME280;70542;53.774;-0.352;2024-02-23T07:58:00;98180;;;5.064;52
78843;BME280;70542;53.774;-0.352;2024-02-23T08:03:57;98180;;;6.171;49
78843;BME280;70542;53.774;-0.352;2024-02-23T08:09:35;98180;;;6.103;48
78843;BME280;70542;53.774;-0.352;2024-02-23T08:15:43;98180;;;5.792;49
78843;BME280;70542;53.774;-0.352;2024-02-23T08:21:51;98180;;;6.172;50
78843;BME280;70542;53.774;-0.352;2024-02-23T08:27:47;98180;;;6.05;49
78843;BME280;70542;53.774;-0.352;2024-02-23T08:33:43;98190;;;4.615;52
78843;BME280;70542;53.774;-0.352;2024-02-23T08:39:50;98190;;;5.359;51
78843;BME280;70542;53.774;-0.352;2024-02-23T08:45:46;98180;;;6.413;48
78843;BME280;70542;53.774;-0.352;2024-02-23T08:51:54;98190;;;6.916;47
78843;BME280;70542;53.774;-0.352;2024-02-23T08:57:50;98190;;;5.791;50
78843;BME280;70542;53.774;-0.352;2024-02-23T09:03:46;98190;;;5.357;52
78843;BME280;70542;53.774;-0.352;2024-02-23T09:09:54;98210;;;5.846;50
78843;BME280;70542;53.774;-0.352;2024-02-23T09:15:57;98210;;;5.186;51
78843;BME280;70542;53.774;-0.352;2024-02-23T09:21:53;98220;;;5.37;52
78843;BME280;70542;53.774;-0.352;2024-02-23T09:28:00;98210;;;5.319;52
78843;BME280;70542;53.774;-0.352;2024-02-23T09:33:57;98220;;;5.238;53
78843;BME280;70542;53.774;-0.352;2024-02-23T09:39:36;98220;;;5.581;52
78843;BME280;70542;53.774;-0.352;2024-02-23T09:45:45;98240;;;5.0;54
78843;BME280;70542;53.774;-0.352;2024-02-23T09:51:25;98230;;;6.031;51
78843;BME280;70542;53.774;-0.352;2024-02-23T09:57:38;98240;;;5.625;52
78843;BME280;70542;53.774;-0.352;2024-02-23T10:03:58;98250;;;5.803;52
78843;BME280;70542;53.774;-0.352;2024-02-23T10:10:11;98260;;;5.574;53
78843;BME280;70542;53.774;-0.352;2024-02-23T10:16:07;98280;;;4.357;54
78843;BME280;70542;53.774;-0.352;2024-02-23T10:22:04;98270;;;7.256;48
78843;BME280;70542;53.774;-0.352;2024-02-23T10:28:17;98280;;;4.912;53
78843;BME280;70542;53.774;-0.352;2024-02-23T10:34:31;98280;;;5.321;54
78843;BME280;70542;53.774;-0.352;2024-02-23T10:40:28;98280;;;5.737;53
78843;BME280;70542;53.774;-0.352;2024-02-23T10:46:39;98290;;;6.069;53
78843;BME280;70542;53.774;-0.352;2024-02-23T10:52:50;98290;;;5.627;53
78843;BME280;70542;53.774;-0.352;2024-02-23T10:58:47;98290;;;5.714;53
78843;BME280;70542;53.774;-0.352;2024-02-23T11:04:43;98300;;;4.264;57
78843;BME280;70542;53.774;-0.352;2024-02-23T11:10:54;98300;;;4.746;55
78843;BME280;70542;53.774;-0.352;2024-02-23T11:16:52;98310;;;6.149;54
78843;BME280;70542;53.774;-0.352;2024-02-23T11:22:52;98320;;;6.849;51
78843;BME280;70542;53.774;-0.352;2024-02-23T11:29:11;98320;;;6.136;54
78843;BME280;70542;53.774;-0.352;2024-02-23T11:35:10;98330;;;4.683;55
78843;BME280;70542;53.774;-0.352;2024-02-23T11:41:02;98340;;;5.58;54
78843;BME280;70542;53.774;-0.352;2024-02-23T11:46:58;98350;;;5.255;55
78843;BME280;70542;53.774;-0.352;2024-02-23T11:52:55;98360;;;5.995;54
78843;BME280;70542;53.774;-0.352;2024-02-23T11:58:51;98350;;;6.113;52
78843;BME280;70542;53.774;-0.352;2024-02-23T12:04:58;98350;;;6.353;52
78843;BME280;70542;53.774;-0.352;2024-02-23T12:11:05;98350;;;5.968;52
78843;BME280;70542;53.774;-0.352;2024-02-23T12:17:02;98350;;;6.585;50
78843;BME280;70542;53.774;-0.352;2024-02-23T12:22:58;98350;;;6.781;49
78843;BME280;70542;53.774;-0.352;2024-02-23T12:29:00;98350;;;5.969;52
78843;BME280;70542;53.774;-0.352;2024-02-23T12:35:10;98360;;;6.68;48
78843;BME280;70542;53.774;-0.352;2024-02-23T12:41:19;98360;;;6.973;48
78843;BME280;70542;53.774;-0.352;2024-02-23T12:47:30;98360;;;7.296;47
78843;BME280;70542;53.774;-0.352;2024-02-23T12:53:32;98370;;;7.362;46
78843;BME280;70542;53.774;-0.352;2024-02-23T12:59:49;98370;;;6.239;47
78843;BME280;70542;53.774;-0.352;2024-02-23T13:05:45;98370;;;7.271;45
78843;BME280;70542;53.774;-0.352;2024-02-23T13:11:57;98370;;;6.709;46
78843;BME280;70542;53.774;-0.352;2024-02-23T13:18:12;98380;;;6.873;47
78843;BME280;70542;53.774;-0.352;2024-02-23T13:24:29;98380;;;7.891;44
78843;BME280;70542;53.774;-0.352;2024-02-23T13:30:48;98380;;;8.52;43
78843;BME280;70542;53.774;-0.352;2024-02-23T13:36:53;98390;;;9.065;42
78843;BME280;70542;53.774;-0.352;2024-02-23T13:42:58;98390;;;7.758;46
78843;BME280;70542;53.774;-0.352;2024-02-23T13:49:09;98400;;;7.069;46
78843;BME280;70542;53.774;-0.352;2024-02-23T13:55:05;98400;;;6.451;46
78843;BME280;70542;53.774;-0.352;2024-02-23T14:01:01;98390;;;6.925;46
78843;BME280;70542;53.774;-0.352;2024-02-23T14:06:57;98390;;;6.845;47
78843;BME280;70542;53.774;-0.352;2024-02-23T14:13:07;98400;;;7.584;45
78843;BME280;70542;53.774;-0.352;2024-02-23T14:19:22;98400;;;6.863;45
78843;BME280;70542;53.774;-0.352;2024-02-23T14:25:23;98410;;;6.989;45
78843;BME280;70542;53.774;-0.352;2024-02-23T14:31:39;98420;;;6.572;47
78843;BME280;70542;53.774;-0.352;2024-02-23T14:37:39;98420;;;8.009;44
78843;BME280;70542;53.774;-0.352;2024-02-23T14:43:44;98420;;;7.866;43
78843;BME280;70542;53.774;-0.352;2024-02-23T14:49:52;98430;;;9.291;40
78843;BME280;70542;53.774;-0.352;2024-02-23T14:55:56;98430;;;10.657;38
78843;BME280;70542;53.774;-0.352;2024-02-23T15:01:46;98440;;;9.11;41
78843;BME280;70542;53.774;-0.352;2024-02-23T15:07:53;98450;;;9.629;39
78843;BME280;70542;53.774;-0.352;2024-02-23T15:14:05;98460;;;9.057;40
78843;BME280;70542;53.774;-0.352;2024-02-23T15:20:07;98470;;;9.05;41
78843;BME280;70542;53.774;-0.352;2024-02-23T15:26:10;98490;;;7.683;44
78843;BME280;70542;53.774;-0.352;2024-02-23T15:32:30;98490;;;9.494;42
78843;BME280;70542;53.774;-0.352;2024-02-23T15:38:42;98500;;;7.757;43
78843;BME280;70542;53.774;-0.352;2024-02-23T15:44:57;98510;;;8.101;43
78843;BME280;70542;53.774;-0.352;2024-02-23T15:50:57;98510;;;9.657;41
78843;BME280;70542;53.774;-0.352;2024-02-23T15:57:18;98520;;;9.685;39
78843;BME280;70542;53.774;-0.352;2024-02-23T16:03:31;98520;;;10.451;39
78843;BME280;70542;53.774;-0.352;2024-02-23T16:09:40;98510;;;10.181;39
78843;BME280;70542;53.774;-0.352;2024-02-23T16:15:46;98520;;;10.125;38
78843;BME280;70542;53.774;-0.352;2024-02-23T16:21:46;98520;;;9.512;38
78843;BME280;70542;53.774;-0.352;2024-02-23T16:27:54;98530;;;9.423;39
78843;BME280;70542;53.774;-0.352;2024-02-23T16:33:50;98530;;;10.019;38
78843;BME280;70542;53.774;-0.352;2024-02-23T16:40:08;98520;;;11.732;35
78843;BME280;70542;53.774;-0.352;2024-02-23T16:46:22;98540;;;10.396;37
78843;BME280;70542;53.774;-0.352;2024-02-23T16:52:18;98540;;;11.126;36
78843;BME280;70542;53.774;-0.352;2024-02-23T16:58:19;98550;;;11.484;35
78843;BME280;70542;53.774;-0.352;2024-02-23T17:04:16;98550;;;11.385;36
78843;BME280;70542;53.774;-0.352;2024-02-23T17:10:24;98560;;;9.753;40
78843;BME280;70542;53.774;-0.352;2024-02-23T17:16:29;98570;;;11.371;44
78843;BME280;70542;53.774;-0.352;2024-02-23T17:22:39;98580;;;12.034;38
78843;BME280;70542;53.774;-0.352;2024-02-23T17:28:42;98580;;;12.3;37
78843;BME280;70542;53.774;-0.352;2024-02-23T17:34:39;98590;;;11.527;38
78843;BME280;70542;53.774;-0.352;2024-02-23T17:40:40;98600;;;11.941;38
78843;BME280;70542;53.774;-0.352;2024-02-23T17:46:38;98610;;;11.403;38
78843;BME280;70542;53.774;-0.352;2024-02-23T17:52:51;98630;;;12.128;38
78843;BME280;70542;53.774;-0.352;2024-02-23T17:58:48;98630;;;11.904;38
78843;BME280;70542;53.774;-0.352;2024-02-23T18:04:57;98630;;;12.069;39
78843;BME280;70542;53.774;-0.352;2024-02-23T18:10:54;98640;;;12.048;38
78843;BME280;70542;53.774;-0.352;2024-02-23T18:16:51;98640;;;12.355;36
78843;BME280;70542;53.774;-0.352;2024-02-23T18:23:00;98650;;;12.328;37
78843;BME280;70542;53.774;-0.352;2024-02-23T18:28:58;98660;;;11.926;37
78843;BME280;70542;53.774;-0.352;2024-02-23T18:34:55;98650;;;11.805;40
78843;BME280;70542;53.774;-0.352;2024-02-23T18:41:04;98660;;;11.565;40
78843;BME280;70542;53.774;-0.352;2024-02-23T18:47:13;98670;;;11.496;40
78843;BME280;70542;53.774;-0.352;2024-02-23T18:53:10;98680;;;11.632;38
78843;BME280;70542;53.774;-0.352;2024-02-23T18:59:20;98690;;;11.497;39
78843;BME280;70542;53.774;-0.352;2024-02-23T19:05:16;98690;;;11.252;39
78843;BME280;70542;53.774;-0.352;2024-02-23T19:11:25;98700;;;10.909;40
78843;BME280;70542;53.774;-0.352;2024-02-23T19:17:21;98710;;;11.172;39
78843;BME280;70542;53.774;-0.352;2024-02-23T19:23:18;98720;;;10.972;41
78843;BME280;70542;53.774;-0.352;2024-02-23T19:29:19;98720;;;10.619;41
78843;BME280;70542;53.774;-0.352;2024-02-23T19:35:16;98720;;;10.717;41
78843;BME280;70542;53.774;-0.352;2024-02-23T19:41:12;98730;;;10.432;42
78843;BME280;70542;53.774;-0.352;2024-02-23T19:47:21;98730;;;10.288;42
78843;BME280;70542;53.774;-0.352;2024-02-23T19:53:30;98750;;;10.48;41
78843;BME280;70542;53.774;-0.352;2024-02-23T19:59:37;98750;;;10.759;41
78843;BME280;70542;53.774;-0.352;2024-02-23T20:05:35;98760;;;10.19;42
78843;BME280;70542;53.774;-0.352;2024-02-23T20:11:33;98760;;;10.712;41
78843;BME280;70542;53.774;-0.352;2024-02-23T20:17:36;98760;;;10.646;42
78843;BME280;70542;53.774;-0.352;2024-02-23T20:23:45;98770;;;10.775;43
78843;BME280;70542;53.774;-0.352;2024-02-23T20:29:54;98780;;;10.277;43
78843;BME280;70542;53.774;-0.352;2024-02-23T20:36:04;98780;;;10.528;42
78843;BME280;70542;53.774;-0.352;2024-02-23T20:42:14;98790;;;10.569;42
78843;BME280;70542;53.774;-0.352;2024-02-23T20:48:23;98800;;;9.71;43
78843;BME280;70542;53.774;-0.352;2024-02-23T20:54:36;98810;;;10.322;41
78843;BME280;70542;53.774;-0.352;2024-02-23T21:01:13;98810;;;10.033;42
78843;BME280;70542;53.774;-0.352;2024-02-23T21:06:52;98810;;;10.181;42
78843;BME280;70542;53.774;-0.352;2024-02-23T21:12:59;98810;;;10.173;43
78843;BME280;70542;53.774;-0.352;2024-02-23T21:19:09;98810;;;10.252;42
78843;BME280;70542;53.774;-0.352;2024-02-23T21:25:07;98810;;;10.293;41
78843;BME280;70542;53.774;-0.352;2024-02-23T21:31:21;98820;;;10.345;42
78843;BME280;70542;53.774;-0.352;2024-02-23T21:37:19;98830;;;10.192;42
78843;BME280;70542;53.774;-0.352;2024-02-23T21:43:32;98830;;;10.115;42
78843;BME280;70542;53.774;-0.352;2024-02-23T21:49:29;98840;;;9.634;41
78843;BME280;70542;53.774;-0.352;2024-02-23T21:55:37;98850;;;9.438;41
78843;BME280;70542;53.774;-0.352;2024-02-23T22:01:33;98860;;;8.33;44
78843;BME280;70542;53.774;-0.352;2024-02-23T22:07:35;98860;;;8.805;42
78843;BME280;70542;53.774;-0.352;2024-02-23T22:13:31;98870;;;9.16;43
78843;BME280;70542;53.774;-0.352;2024-02-23T22:19:27;98880;;;9.636;42
78843;BME280;70542;53.774;-0.352;2024-02-23T22:25:28;98870;;;8.94;42
78843;BME280;70542;53.774;-0.352;2024-02-23T22:31:25;98880;;;9.23;42
78843;BME280;70542;53.774;-0.352;2024-02-23T22:37:39;98890;;;9.577;42
78843;BME280;70542;53.774;-0.352;2024-02-23T22:43:47;98900;;;8.985;42
78843;BME280;70542;53.774;-0.352;2024-02-23T22:49:55;98900;;;8.921;42
78843;BME280;70542;53.774;-0.352;2024-02-23T22:56:05;98910;;;8.052;44
78843;BME280;70542;53.774;-0.352;2024-02-23T23:02:13;98910;;;7.115;46
78843;BME280;70542;53.774;-0.352;2024-02-23T23:08:15;98910;;;6.644;49
78843;BME280;70542;53.774;-0.352;2024-02-23T23:15:10;98910;;;9.181;43
78843;BME280;70542;53.774;-0.352;2024-02-23T23:21:18;98920;;;8.353;44
78843;BME280;70542;53.774;-0.352;2024-02-23T23:27:14;98920;;;8.637;44
78843;BME280;70542;53.774;-0.352;2024-02-23T23:33:10;98930;;;8.961;43
78843;BME280;70542;53.774;-0.352;2024-02-23T23:39:06;98930;;;8.646;43
78843;BME280;70542;53.774;-0.352;2024-02-23T23:45:07;98930;;;8.244;43
78843;BME280;70542;53.774;-0.352;2024-02-23T23:51:05;98940;;;9.014;42
78843;BME280;70542;53.774;-0.352;2024-02-23T23:57:23;98940;;;8.56;43
